sensor_id;sensor_type;location;lat;lon;timestamp;pressure;altitude;pressure_sealevel;temperature;humidity
71465;BME280;59274;49.874;9.154;2023-02-02T00:02:03;100849.72;;;6.12;97.61
71465;BME280;59274;49.874;9.154;2023-02-02T00:04:31;100846.06;;;6.16;96.92
71465;BME280;59274;49.874;9.154;2023-02-02T00:06:57;100850.97;;;6.14;97.28
71465;BME280;59274;49.874;9.154;2023-02-02T00:09:25;100848.31;;;6.06;98.38
71465;BME280;59274;49.874;9.154;2023-02-02T00:11:53;100847.09;;;6.03;98.49
71465;BME280;59274;49.874;9.154;2023-02-02T00:14:19;100840.44;;;6.01;99.69
71465;BME280;59274;49.874;9.154;2023-02-02T00:16:48;100838.84;;;6.00;99.92
71465;BME280;59274;49.874;9.154;2023-02-02T00:19:23;100845.22;;;5.95;99.70
71465;BME280;59274;49.874;9.154;2023-02-02T00:21:51;100840.28;;;5.97;99.69
71465;BME280;59274;49.874;9.154;2023-02-02T00:24:17;100846.34;;;5.94;100.00
71465;BME280;59274;49.874;9.154;2023-02-02T00:26:44;100848.56;;;5.92;100.00
71465;BME280;59274;49.874;9.154;2023-02-02T00:29:16;100859.81;;;5.94;100.00
71465;BME280;59274;49.874;9.154;2023-02-02T00:31:42;100842.22;;;5.97;100.00
71465;BME280;59274;49.874;9.154;2023-02-02T00:34:12;100839.38;;;5.93;100.00
71465;BME280;59274;49.874;9.154;2023-02-02T00:36:38;100850.47;;;5.92;100.00
71465;BME280;59274;49.874;9.154;2023-02-02T00:39:04;100834.13;;;5.97;100.00
71465;BME280;59274;49.874;9.154;2023-02-02T00:41:30;100839.69;;;5.92;100.00
71465;BME280;59274;49.874;9.154;2023-02-02T00:43:55;100828.78;;;5.88;100.00
71465;BME280;59274;49.874;9.154;2023-02-02T00:46:40;100831.28;;;5.84;100.00
71465;BME280;59274;49.874;9.154;2023-02-02T00:49:06;100838.44;;;5.89;100.00
71465;BME280;59274;49.874;9.154;2023-02-02T00:51:32;100831.28;;;5.84;100.00
71465;BME280;59274;49.874;9.154;2023-02-02T00:53:58;100838.94;;;5.82;100.00
71465;BME280;59274;49.874;9.154;2023-02-02T00:56:23;100835.75;;;5.80;100.00
71465;BME280;59274;49.874;9.154;2023-02-02T00:58:50;100833.06;;;5.80;100.00
71465;BME280;59274;49.874;9.154;2023-02-02T01:01:19;100830.50;;;5.84;100.00
71465;BME280;59274;49.874;9.154;2023-02-02T01:03:46;100824.97;;;5.89;100.00
71465;BME280;59274;49.874;9.154;2023-02-02T01:06:12;100827.66;;;5.89;100.00
71465;BME280;59274;49.874;9.154;2023-02-02T01:08:38;100833.38;;;5.87;100.00
71465;BME280;59274;49.874;9.154;2023-02-02T01:11:04;100825.75;;;5.89;100.00
71465;BME280;59274;49.874;9.154;2023-02-02T01:13:29;100826.88;;;5.88;100.00
71465;BME280;59274;49.874;9.154;2023-02-02T01:15:56;100833.19;;;5.93;100.00
71465;BME280;59274;49.874;9.154;2023-02-02T01:18:21;100837.16;;;5.95;100.00
71465;BME280;59274;49.874;9.154;2023-02-02T01:20:47;100832.53;;;5.96;100.00
71465;BME280;59274;49.874;9.154;2023-02-02T01:23:12;100833.13;;;6.01;100.00
71465;BME280;59274;49.874;9.154;2023-02-02T01:25:37;100852.94;;;6.05;100.00
71465;BME280;59274;49.874;9.154;2023-02-02T01:28:04;100854.50;;;6.06;100.00
71465;BME280;59274;49.874;9.154;2023-02-02T01:30:29;100847.53;;;6.05;100.00
71465;BME280;59274;49.874;9.154;2023-02-02T01:32:54;100841.50;;;6.08;100.00
71465;BME280;59274;49.874;9.154;2023-02-02T01:35:20;100860.38;;;6.08;100.00
71465;BME280;59274;49.874;9.154;2023-02-02T01:37:45;100861.38;;;6.04;100.00
71465;BME280;59274;49.874;9.154;2023-02-02T01:40:11;100852.94;;;6.05;100.00
71465;BME280;59274;49.874;9.154;2023-02-02T01:42:37;100848.31;;;6.06;100.00
71465;BME280;59274;49.874;9.154;2023-02-02T01:45:25;100851.81;;;6.06;100.00
71465;BME280;59274;49.874;9.154;2023-02-02T01:47:56;100843.44;;;5.99;100.00
71465;BME280;59274;49.874;9.154;2023-02-02T01:50:27;100826.88;;;5.88;100.00
71465;BME280;59274;49.874;9.154;2023-02-02T01:52:55;100821.19;;;5.81;100.00
71465;BME280;59274;49.874;9.154;2023-02-02T01:55:24;100827.34;;;5.82;100.00
71465;BME280;59274;49.874;9.154;2023-02-02T02:00:18;100840.38;;;5.80;100.00
71465;BME280;59274;49.874;9.154;2023-02-02T02:02:51;100836.88;;;5.79;100.00
71465;BME280;59274;49.874;9.154;2023-02-02T02:05:23;100838.00;;;5.78;100.00
71465;BME280;59274;49.874;9.154;2023-02-02T02:07:51;100833.59;;;5.74;100.00
71465;BME280;59274;49.874;9.154;2023-02-02T02:10:18;100835.00;;;5.71;100.00
71465;BME280;59274;49.874;9.154;2023-02-02T02:12:44;100822.97;;;5.69;100.00
71465;BME280;59274;49.874;9.154;2023-02-02T02:15:11;100830.56;;;5.75;100.00
71465;BME280;59274;49.874;9.154;2023-02-02T02:18:23;100826.56;;;5.81;100.00
71465;BME280;59274;49.874;9.154;2023-02-02T02:21:20;100837.78;;;5.83;100.00
71465;BME280;59274;49.874;9.154;2023-02-02T02:30:45;100847.03;;;5.82;100.00
71465;BME280;59274;49.874;9.154;2023-02-02T02:36:32;100849.44;;;5.75;100.00
71465;BME280;59274;49.874;9.154;2023-02-02T02:39:19;100845.47;;;5.73;100.00
71465;BME280;59274;49.874;9.154;2023-02-02T02:41:49;100838.00;;;5.78;100.00
71465;BME280;59274;49.874;9.154;2023-02-02T02:44:18;100846.66;;;5.84;100.00
71465;BME280;59274;49.874;9.154;2023-02-02T02:46:46;100838.94;;;5.82;100.00
71465;BME280;59274;49.874;9.154;2023-02-02T02:49:12;100849.25;;;5.80;100.00
71465;BME280;59274;49.874;9.154;2023-02-02T02:51:45;100849.72;;;5.82;100.00
71465;BME280;59274;49.874;9.154;2023-02-02T02:54:32;100860.81;;;5.89;100.00
71465;BME280;59274;49.874;9.154;2023-02-02T03:02:32;100849.44;;;5.75;100.00
71465;BME280;59274;49.874;9.154;2023-02-02T03:05:22;100843.38;;;5.78;100.00
71465;BME280;59274;49.874;9.154;2023-02-02T03:07:56;100849.88;;;5.77;100.00
71465;BME280;59274;49.874;9.154;2023-02-02T03:10:28;100843.69;;;5.77;100.00
71465;BME280;59274;49.874;9.154;2023-02-02T03:12:55;100832.13;;;5.76;100.00
71465;BME280;59274;49.874;9.154;2023-02-02T03:15:20;100825.47;;;5.82;100.00
71465;BME280;59274;49.874;9.154;2023-02-02T03:17:48;100843.06;;;5.80;100.00
71465;BME280;59274;49.874;9.154;2023-02-02T03:20:15;100833.88;;;5.81;100.00
71465;BME280;59274;49.874;9.154;2023-02-02T03:22:40;100849.56;;;5.79;100.00
71465;BME280;59274;49.874;9.154;2023-02-02T03:25:06;100843.19;;;5.83;100.00
71465;BME280;59274;49.874;9.154;2023-02-02T03:27:36;100841.75;;;5.86;100.00
71465;BME280;59274;49.874;9.154;2023-02-02T03:30:03;100833.53;;;5.82;100.00
71465;BME280;59274;49.874;9.154;2023-02-02T03:32:28;100843.06;;;5.80;100.00
71465;BME280;59274;49.874;9.154;2023-02-02T03:34:54;100836.56;;;5.81;100.00
71465;BME280;59274;49.874;9.154;2023-02-02T03:37:19;100832.47;;;5.75;100.00
71465;BME280;59274;49.874;9.154;2023-02-02T03:39:44;100828.78;;;5.79;100.00
71465;BME280;59274;49.874;9.154;2023-02-02T03:42:11;100839.09;;;5.77;100.00
71465;BME280;59274;49.874;9.154;2023-02-02T03:44:36;100840.03;;;5.81;100.00
71465;BME280;59274;49.874;9.154;2023-02-02T03:47:02;100842.06;;;5.84;100.00
71465;BME280;59274;49.874;9.154;2023-02-02T03:49:27;100851.56;;;5.90;100.00
71465;BME280;59274;49.874;9.154;2023-02-02T03:51:52;100856.03;;;5.86;100.00
71465;BME280;59274;49.874;9.154;2023-02-02T03:54:18;100849.03;;;5.85;100.00
71465;BME280;59274;49.874;9.154;2023-02-02T03:56:43;100855.53;;;5.84;100.00
71465;BME280;59274;49.874;9.154;2023-02-02T03:59:09;100851.94;;;5.80;100.00
71465;BME280;59274;49.874;9.154;2023-02-02T04:01:34;100844.31;;;5.82;100.00
71465;BME280;59274;49.874;9.154;2023-02-02T04:03:59;100836.88;;;5.79;100.00
71465;BME280;59274;49.874;9.154;2023-02-02T04:06:25;100835.28;;;5.78;100.00
71465;BME280;59274;49.874;9.154;2023-02-02T04:08:51;100830.56;;;5.75;100.00
71465;BME280;59274;49.874;9.154;2023-02-02T04:11:18;100846.53;;;5.80;100.00
71465;BME280;59274;49.874;9.154;2023-02-02T04:13:43;100855.88;;;5.83;100.00
71465;BME280;59274;49.874;9.154;2023-02-02T04:16:10;100847.19;;;5.77;100.00
71465;BME280;59274;49.874;9.154;2023-02-02T04:18:36;100849.44;;;5.75;100.00
71465;BME280;59274;49.874;9.154;2023-02-02T04:21:05;100845.94;;;5.75;100.00
71465;BME280;59274;49.874;9.154;2023-02-02T04:23:31;100839.28;;;5.72;100.00
71465;BME280;59274;49.874;9.154;2023-02-02T04:25:58;100849.28;;;5.72;100.00
71465;BME280;59274;49.874;9.154;2023-02-02T04:28:25;100849.09;;;5.77;100.00
71465;BME280;59274;49.874;9.154;2023-02-02T04:30:52;100852.56;;;5.77;100.00
71465;BME280;59274;49.874;9.154;2023-02-02T04:33:18;100848.13;;;5.81;100.00
71465;BME280;59274;49.874;9.154;2023-02-02T04:35:43;100851.94;;;5.80;100.00
71465;BME280;59274;49.874;9.154;2023-02-02T04:38:09;100864.09;;;5.95;100.00
71465;BME280;59274;49.874;9.154;2023-02-02T04:40:43;100863.31;;;5.95;100.00
71465;BME280;59274;49.874;9.154;2023-02-02T04:43:09;100873.91;;;6.00;100.00
71465;BME280;59274;49.874;9.154;2023-02-02T04:45:35;100889.88;;;6.05;100.00
71465;BME280;59274;49.874;9.154;2023-02-02T04:48:04;100878.19;;;6.01;100.00
71465;BME280;59274;49.874;9.154;2023-02-02T04:50:30;100860.56;;;6.03;100.00
71465;BME280;59274;49.874;9.154;2023-02-02T04:52:56;100869.44;;;6.04;100.00
71465;BME280;59274;49.874;9.154;2023-02-02T04:55:22;100870.06;;;6.09;100.00
71465;BME280;59274;49.874;9.154;2023-02-02T04:57:48;100873.97;;;6.12;100.00
71465;BME280;59274;49.874;9.154;2023-02-02T05:00:14;100873.66;;;6.13;100.00
71465;BME280;59274;49.874;9.154;2023-02-02T05:02:40;100873.66;;;6.13;100.00
71465;BME280;59274;49.874;9.154;2023-02-02T05:05:09;100880.44;;;6.19;100.00
71465;BME280;59274;49.874;9.154;2023-02-02T05:07:35;100888.88;;;6.18;100.00
71465;BME280;59274;49.874;9.154;2023-02-02T05:10:03;100891.91;;;6.16;100.00
71465;BME280;59274;49.874;9.154;2023-02-02T05:12:29;100886.63;;;6.20;100.00
71465;BME280;59274;49.874;9.154;2023-02-02T05:14:54;100890.31;;;6.15;100.00
71465;BME280;59274;49.874;9.154;2023-02-02T05:17:19;100901.88;;;6.16;100.00
71465;BME280;59274;49.874;9.154;2023-02-02T05:19:45;100905.06;;;6.18;100.00
71465;BME280;59274;49.874;9.154;2023-02-02T05:22:10;100905.81;;;6.18;100.00
71465;BME280;59274;49.874;9.154;2023-02-02T05:24:36;100902.16;;;6.23;100.00
71465;BME280;59274;49.874;9.154;2023-02-02T05:27:01;100905.19;;;6.21;100.00
71465;BME280;59274;49.874;9.154;2023-02-02T05:29:27;100899.16;;;6.24;100.00
71465;BME280;59274;49.874;9.154;2023-02-02T05:31:53;100898.81;;;6.26;100.00
71465;BME280;59274;49.874;9.154;2023-02-02T05:34:19;100896.72;;;6.32;100.00
71465;BME280;59274;49.874;9.154;2023-02-02T05:36:45;100902.56;;;6.34;100.00
71465;BME280;59274;49.874;9.154;2023-02-02T05:39:10;100902.75;;;6.28;100.00
71465;BME280;59274;49.874;9.154;2023-02-02T05:41:36;100909.75;;;6.29;100.00
71465;BME280;59274;49.874;9.154;2023-02-02T05:44:02;100895.31;;;6.25;100.00
71465;BME280;59274;49.874;9.154;2023-02-02T05:46:28;100908.63;;;6.31;100.00
71465;BME280;59274;49.874;9.154;2023-02-02T05:48:54;100902.28;;;6.26;100.00
71465;BME280;59274;49.874;9.154;2023-02-02T05:51:24;100908.47;;;6.27;100.00
71465;BME280;59274;49.874;9.154;2023-02-02T05:53:51;100908.69;;;6.22;100.00
71465;BME280;59274;49.874;9.154;2023-02-02T05:56:17;100904.88;;;6.23;100.00
71465;BME280;59274;49.874;9.154;2023-02-02T05:58:42;100905.06;;;6.18;100.00
71465;BME280;59274;49.874;9.154;2023-02-02T06:01:08;100902.38;;;6.18;100.00
71465;BME280;59274;49.874;9.154;2023-02-02T06:03:34;100913.78;;;6.15;100.00
71465;BME280;59274;49.874;9.154;2023-02-02T06:05:59;100903.63;;;6.12;100.00
71465;BME280;59274;49.874;9.154;2023-02-02T06:08:25;100920.44;;;6.17;100.00
71465;BME280;59274;49.874;9.154;2023-02-02T06:10:50;100913.78;;;6.15;100.00
71465;BME280;59274;49.874;9.154;2023-02-02T06:13:16;100907.28;;;6.16;100.00
71465;BME280;59274;49.874;9.154;2023-02-02T06:15:41;100915.06;;;6.17;100.00
71465;BME280;59274;49.874;9.154;2023-02-02T06:18:07;100918.06;;;6.16;100.00
71465;BME280;59274;49.874;9.154;2023-02-02T06:20:33;100919.50;;;6.13;100.00
71465;BME280;59274;49.874;9.154;2023-02-02T06:22:59;100929.06;;;6.11;100.00
71465;BME280;59274;49.874;9.154;2023-02-02T06:25:24;100929.22;;;6.06;100.00
71465;BME280;59274;49.874;9.154;2023-02-02T06:27:57;100926.06;;;6.04;100.00
71465;BME280;59274;49.874;9.154;2023-02-02T06:30:23;100931.94;;;5.97;100.00
71465;BME280;59274;49.874;9.154;2023-02-02T06:32:48;100923.72;;;5.94;100.00
71465;BME280;59274;49.874;9.154;2023-02-02T06:35:14;100932.41;;;5.99;100.00
71465;BME280;59274;49.874;9.154;2023-02-02T06:37:39;100915.44;;;5.99;100.00
71465;BME280;59274;49.874;9.154;2023-02-02T06:40:07;100931.63;;;5.99;100.00
71465;BME280;59274;49.874;9.154;2023-02-02T06:42:32;100928.94;;;5.99;100.00
71465;BME280;59274;49.874;9.154;2023-02-02T06:44:58;100921.94;;;5.98;100.00
71465;BME280;59274;49.874;9.154;2023-02-02T06:47:24;100935.31;;;5.94;100.00
71465;BME280;59274;49.874;9.154;2023-02-02T06:49:49;100938.91;;;5.98;100.00
71465;BME280;59274;49.874;9.154;2023-02-02T06:52:14;100937.69;;;5.96;100.00
71465;BME280;59274;49.874;9.154;2023-02-02T06:54:40;100931.94;;;5.97;100.00
71465;BME280;59274;49.874;9.154;2023-02-02T06:57:05;100948.28;;;6.01;100.00
71465;BME280;59274;49.874;9.154;2023-02-02T06:59:31;100955.88;;;5.99;100.00
71465;BME280;59274;49.874;9.154;2023-02-02T07:01:56;100944.78;;;6.00;100.00
71465;BME280;59274;49.874;9.154;2023-02-02T07:04:21;100939.88;;;6.02;100.00
71465;BME280;59274;49.874;9.154;2023-02-02T07:06:47;100942.88;;;6.01;100.00
71465;BME280;59274;49.874;9.154;2023-02-02T07:09:12;100953.47;;;6.06;100.00
71465;BME280;59274;49.874;9.154;2023-02-02T07:11:38;100944.75;;;6.09;100.00
71465;BME280;59274;49.874;9.154;2023-02-02T07:14:03;100946.16;;;6.15;100.00
71465;BME280;59274;49.874;9.154;2023-02-02T07:16:29;100950.56;;;6.19;100.00
71465;BME280;59274;49.874;9.154;2023-02-02T07:18:55;100947.34;;;6.26;100.00
71465;BME280;59274;49.874;9.154;2023-02-02T07:21:24;100943.22;;;6.28;100.00
71465;BME280;59274;49.874;9.154;2023-02-02T07:23:52;100939.41;;;6.29;100.00
71465;BME280;59274;49.874;9.154;2023-02-02T07:26:18;100938.09;;;6.36;100.00
71465;BME280;59274;49.874;9.154;2023-02-02T07:28:44;100948.41;;;6.34;100.00
71465;BME280;59274;49.874;9.154;2023-02-02T07:31:21;100948.25;;;6.39;100.00
71465;BME280;59274;49.874;9.154;2023-02-02T07:33:47;100939.38;;;6.38;100.00
71465;BME280;59274;49.874;9.154;2023-02-02T07:36:16;100952.50;;;6.40;100.00
71465;BME280;59274;49.874;9.154;2023-02-02T07:38:43;100946.94;;;6.45;100.00
71465;BME280;59274;49.874;9.154;2023-02-02T07:41:09;100945.63;;;6.51;100.00
71465;BME280;59274;49.874;9.154;2023-02-02T07:43:34;100953.53;;;6.56;100.00
71465;BME280;59274;49.874;9.154;2023-02-02T07:46:01;100968.28;;;6.58;100.00
71465;BME280;59274;49.874;9.154;2023-02-02T07:48:30;100960.19;;;6.58;100.00
71465;BME280;59274;49.874;9.154;2023-02-02T07:50:59;100970.53;;;6.56;100.00
71465;BME280;59274;49.874;9.154;2023-02-02T07:53:25;100967.34;;;6.54;100.00
71465;BME280;59274;49.874;9.154;2023-02-02T07:55:50;100976.84;;;6.60;100.00
71465;BME280;59274;49.874;9.154;2023-02-02T07:58:16;100973.50;;;6.63;100.00
71465;BME280;59274;49.874;9.154;2023-02-02T08:00:41;100982.69;;;6.62;100.00
71465;BME280;59274;49.874;9.154;2023-02-02T08:03:10;100987.66;;;6.60;100.00
71465;BME280;59274;49.874;9.154;2023-02-02T08:05:36;100987.78;;;6.64;100.00
71465;BME280;59274;49.874;9.154;2023-02-02T08:08:01;100988.75;;;6.59;100.00
71465;BME280;59274;49.874;9.154;2023-02-02T08:10:26;100984.75;;;6.65;100.00
71465;BME280;59274;49.874;9.154;2023-02-02T08:12:52;100983.16;;;6.64;100.00
71465;BME280;59274;49.874;9.154;2023-02-02T08:15:17;100988.69;;;6.68;100.00
71465;BME280;59274;49.874;9.154;2023-02-02T08:17:44;100979.03;;;6.67;100.00
71465;BME280;59274;49.874;9.154;2023-02-02T08:20:11;100975.81;;;6.74;100.00
71465;BME280;59274;49.874;9.154;2023-02-02T08:22:37;100989.38;;;6.65;100.00
71465;BME280;59274;49.874;9.154;2023-02-02T08:25:04;100988.56;;;6.64;100.00
71465;BME280;59274;49.874;9.154;2023-02-02T08:27:29;100975.81;;;6.74;100.00
71465;BME280;59274;49.874;9.154;2023-02-02T08:29:55;100979.91;;;6.80;100.00
71465;BME280;59274;49.874;9.154;2023-02-02T08:32:20;100987.53;;;6.78;99.87
71465;BME280;59274;49.874;9.154;2023-02-02T08:34:49;100990.69;;;6.80;100.00
71465;BME280;59274;49.874;9.154;2023-02-02T08:37:16;100988.91;;;6.84;99.66
71465;BME280;59274;49.874;9.154;2023-02-02T08:39:41;100985.09;;;6.85;99.85
71465;BME280;59274;49.874;9.154;2023-02-02T08:42:07;101011.47;;;6.88;100.00
71465;BME280;59274;49.874;9.154;2023-02-02T08:44:32;101006.84;;;6.88;98.63
71465;BME280;59274;49.874;9.154;2023-02-02T08:46:58;101006.38;;;6.86;98.86
71465;BME280;59274;49.874;9.154;2023-02-02T08:49:23;101010.00;;;6.90;98.45
71465;BME280;59274;49.874;9.154;2023-02-02T08:51:50;101010.78;;;6.91;98.25
71465;BME280;59274;49.874;9.154;2023-02-02T08:54:18;101008.34;;;6.98;98.41
71465;BME280;59274;49.874;9.154;2023-02-02T08:56:44;101013.44;;;6.99;97.75
71465;BME280;59274;49.874;9.154;2023-02-02T08:59:09;101008.63;;;7.05;97.02
71465;BME280;59274;49.874;9.154;2023-02-02T09:01:35;101005.91;;;7.05;97.17
71465;BME280;59274;49.874;9.154;2023-02-02T09:04:03;101010.19;;;7.06;97.29
71465;BME280;59274;49.874;9.154;2023-02-02T09:06:37;101007.50;;;7.06;96.82
71465;BME280;59274;49.874;9.154;2023-02-02T09:09:04;101009.81;;;7.16;96.43
71465;BME280;59274;49.874;9.154;2023-02-02T09:11:30;101016.13;;;7.20;96.24
71465;BME280;59274;49.874;9.154;2023-02-02T09:13:57;100997.00;;;7.25;95.42
71465;BME280;59274;49.874;9.154;2023-02-02T09:16:23;101021.78;;;7.27;94.20
71465;BME280;59274;49.874;9.154;2023-02-02T09:18:49;101012.38;;;7.33;94.30
71465;BME280;59274;49.874;9.154;2023-02-02T09:21:16;101022.31;;;7.41;93.22
71465;BME280;59274;49.874;9.154;2023-02-02T09:23:43;101021.31;;;7.46;92.87
71465;BME280;59274;49.874;9.154;2023-02-02T09:26:17;101019.00;;;7.57;91.95
71465;BME280;59274;49.874;9.154;2023-02-02T09:28:51;101024.25;;;7.53;92.12
71465;BME280;59274;49.874;9.154;2023-02-02T09:31:17;101020.81;;;7.53;91.96
71465;BME280;59274;49.874;9.154;2023-02-02T09:33:43;101021.50;;;7.62;91.42
71465;BME280;59274;49.874;9.154;2023-02-02T09:36:12;101029.41;;;7.67;90.56
71465;BME280;59274;49.874;9.154;2023-02-02T09:38:39;101022.75;;;7.64;90.32
71465;BME280;59274;49.874;9.154;2023-02-02T09:41:23;101023.75;;;7.60;90.79
71465;BME280;59274;49.874;9.154;2023-02-02T09:46:39;101028.00;;;7.61;90.38
71465;BME280;59274;49.874;9.154;2023-02-02T09:49:10;101034.13;;;7.70;90.45
71465;BME280;59274;49.874;9.154;2023-02-02T09:51:43;101041.38;;;7.78;89.97
71465;BME280;59274;49.874;9.154;2023-02-02T09:54:23;101054.44;;;7.76;89.22
71465;BME280;59274;49.874;9.154;2023-02-02T09:56:52;101041.38;;;7.78;90.09
71465;BME280;59274;49.874;9.154;2023-02-02T09:59:24;101043.28;;;7.77;88.39
71465;BME280;59274;49.874;9.154;2023-02-02T10:01:55;101046.94;;;7.81;89.19
71465;BME280;59274;49.874;9.154;2023-02-02T10:04:35;101056.50;;;7.91;88.97
71465;BME280;59274;49.874;9.154;2023-02-02T10:07:08;101054.69;;;7.83;88.38
71465;BME280;59274;49.874;9.154;2023-02-02T10:09:47;101061.66;;;7.84;88.04
71465;BME280;59274;49.874;9.154;2023-02-02T10:19:45;101073.59;;;7.83;88.49
71465;BME280;59274;49.874;9.154;2023-02-02T10:22:17;101075.44;;;7.91;87.36
71465;BME280;59274;49.874;9.154;2023-02-02T10:24:44;101060.34;;;7.90;87.09
71465;BME280;59274;49.874;9.154;2023-02-02T10:27:14;101072.97;;;7.86;86.88
71465;BME280;59274;49.874;9.154;2023-02-02T10:32:19;101065.97;;;7.85;87.28
71465;BME280;59274;49.874;9.154;2023-02-02T10:43:30;101100.50;;;8.00;86.30
71465;BME280;59274;49.874;9.154;2023-02-02T10:46:31;101081.56;;;8.00;86.17
71465;BME280;59274;49.874;9.154;2023-02-02T10:52:03;101075.94;;;8.05;86.11
71465;BME280;59274;49.874;9.154;2023-02-02T10:57:15;101109.09;;;8.14;85.49
71465;BME280;59274;49.874;9.154;2023-02-02T11:00:03;101075.72;;;8.10;85.35
71465;BME280;59274;49.874;9.154;2023-02-02T11:02:31;101104.81;;;8.13;85.11
71465;BME280;59274;49.874;9.154;2023-02-02T11:04:56;101088.38;;;8.18;85.54
71465;BME280;59274;49.874;9.154;2023-02-02T11:07:40;101117.56;;;8.13;85.19
71465;BME280;59274;49.874;9.154;2023-02-02T11:10:06;101082.06;;;8.14;86.15
71465;BME280;59274;49.874;9.154;2023-02-02T11:12:40;101091.28;;;8.13;86.08
71465;BME280;59274;49.874;9.154;2023-02-02T11:15:22;101085.56;;;8.15;84.97
71465;BME280;59274;49.874;9.154;2023-02-02T11:17:49;101082.75;;;8.23;84.48
71465;BME280;59274;49.874;9.154;2023-02-02T11:20:32;101089.53;;;8.30;85.26
71465;BME280;59274;49.874;9.154;2023-02-02T11:23:00;101079.88;;;8.41;84.77
71465;BME280;59274;49.874;9.154;2023-02-02T11:25:32;101071.88;;;8.44;85.13
71465;BME280;59274;49.874;9.154;2023-02-02T11:28:08;101081.38;;;8.50;84.31
71465;BME280;59274;49.874;9.154;2023-02-02T11:30:36;101088.78;;;8.41;84.37
71465;BME280;59274;49.874;9.154;2023-02-02T11:33:34;101081.47;;;8.42;84.72
71465;BME280;59274;49.874;9.154;2023-02-02T11:36:02;101067.59;;;8.55;84.71
71465;BME280;59274;49.874;9.154;2023-02-02T11:38:29;101071.00;;;8.52;84.06
71465;BME280;59274;49.874;9.154;2023-02-02T11:41:04;101073.09;;;8.47;84.27
71465;BME280;59274;49.874;9.154;2023-02-02T11:46:04;101078.28;;;8.40;84.77
71465;BME280;59274;49.874;9.154;2023-02-02T11:48:38;101071.28;;;8.39;84.08
71465;BME280;59274;49.874;9.154;2023-02-02T11:51:05;101061.94;;;8.48;84.31
71465;BME280;59274;49.874;9.154;2023-02-02T11:53:33;101067.69;;;8.47;83.49
71465;BME280;59274;49.874;9.154;2023-02-02T11:56:04;101064.31;;;8.50;83.82
71465;BME280;59274;49.874;9.154;2023-02-02T11:58:48;101064.88;;;8.55;84.30
71465;BME280;59274;49.874;9.154;2023-02-02T12:01:37;101052.94;;;8.56;84.21
71465;BME280;59274;49.874;9.154;2023-02-02T12:06:41;101060.81;;;8.61;84.35
71465;BME280;59274;49.874;9.154;2023-02-02T12:09:14;101067.47;;;8.40;85.81
71465;BME280;59274;49.874;9.154;2023-02-02T12:12:02;101070.84;;;8.37;87.80
71465;BME280;59274;49.874;9.154;2023-02-02T12:28:17;101068.38;;;7.66;94.44
71465;BME280;59274;49.874;9.154;2023-02-02T12:31:07;101074.91;;;7.65;93.85
71465;BME280;59274;49.874;9.154;2023-02-02T12:33:40;101074.22;;;7.68;93.79
71465;BME280;59274;49.874;9.154;2023-02-02T12:47:35;101071.28;;;7.94;90.42
71465;BME280;59274;49.874;9.154;2023-02-02T12:49:49;101076.03;;;7.97;90.06
71465;BME280;59274;49.874;9.154;2023-02-02T12:58:01;101078.56;;;8.14;89.48
71465;BME280;59274;49.874;9.154;2023-02-02T13:01:06;101068.78;;;8.21;88.10
71465;BME280;59274;49.874;9.154;2023-02-02T13:06:27;101061.94;;;8.36;87.06
71465;BME280;59274;49.874;9.154;2023-02-02T13:09:07;101074.69;;;8.48;87.01
71465;BME280;59274;49.874;9.154;2023-02-02T13:11:41;101082.94;;;8.51;86.84
71465;BME280;59274;49.874;9.154;2023-02-02T13:16:41;101080.31;;;8.31;90.58
71465;BME280;59274;49.874;9.154;2023-02-02T13:19:16;101072.25;;;8.22;90.33
71465;BME280;59274;49.874;9.154;2023-02-02T13:21:45;101089.63;;;8.21;90.26
71465;BME280;59274;49.874;9.154;2023-02-02T13:24:14;101081.50;;;8.21;90.94
71465;BME280;59274;49.874;9.154;2023-02-02T13:26:44;101086.44;;;8.19;90.52
71465;BME280;59274;49.874;9.154;2023-02-02T13:32:04;101093.91;;;8.22;89.56
71465;BME280;59274;49.874;9.154;2023-02-02T13:40:05;101084.44;;;8.16;90.35
71465;BME280;59274;49.874;9.154;2023-02-02T13:42:49;101093.34;;;8.16;90.52
71465;BME280;59274;49.874;9.154;2023-02-02T13:45:41;101098.53;;;8.21;90.41
71465;BME280;59274;49.874;9.154;2023-02-02T13:48:25;101103.47;;;8.19;91.23
71465;BME280;59274;49.874;9.154;2023-02-02T13:59:50;101105.47;;;8.31;91.35
71465;BME280;59274;49.874;9.154;2023-02-02T14:04:58;101123.34;;;8.23;92.28
71465;BME280;59274;49.874;9.154;2023-02-02T14:07:35;101119.50;;;8.24;92.18
71465;BME280;59274;49.874;9.154;2023-02-02T14:10:03;101119.16;;;8.26;91.31
71465;BME280;59274;49.874;9.154;2023-02-02T14:12:33;101132.84;;;8.30;91.70
71465;BME280;59274;49.874;9.154;2023-02-02T14:15:00;101126.63;;;8.29;91.64
71465;BME280;59274;49.874;9.154;2023-02-02T14:27:59;101137.69;;;8.24;92.29
71465;BME280;59274;49.874;9.154;2023-02-02T14:30:28;101140.25;;;8.20;92.93
71465;BME280;59274;49.874;9.154;2023-02-02T14:43:26;101147.78;;;8.15;94.26
71465;BME280;59274;49.874;9.154;2023-02-02T14:48:40;101155.75;;;8.11;95.23
71465;BME280;59274;49.874;9.154;2023-02-02T14:51:16;101159.78;;;8.05;95.18
71465;BME280;59274;49.874;9.154;2023-02-02T14:53:53;101158.88;;;8.01;95.18
71465;BME280;59274;49.874;9.154;2023-02-02T14:56:20;101166.88;;;7.98;97.23
71465;BME280;59274;49.874;9.154;2023-02-02T14:58:59;101160.88;;;7.92;98.08
71465;BME280;59274;49.874;9.154;2023-02-02T15:01:32;101176.84;;;7.85;98.29
71465;BME280;59274;49.874;9.154;2023-02-02T15:04:22;101179.75;;;7.80;99.53
71465;BME280;59274;49.874;9.154;2023-02-02T15:06:50;101181.50;;;7.76;99.88
71465;BME280;59274;49.874;9.154;2023-02-02T15:28:16;101205.50;;;7.57;100.00
71465;BME280;59274;49.874;9.154;2023-02-02T15:30:46;101208.22;;;7.57;100.00
71465;BME280;59274;49.874;9.154;2023-02-02T15:33:36;101211.72;;;7.57;100.00